Terminal Aerodrome Forecast
Issued by NWS Charleston, WV

Current Version | Previous Version | Text Only | Print | Product List | Glossary Off
Versions: 1 2 3 4 5 6 7 8 9 10 11 12 13 14 15 16 17 18 19 20 21 22

438
FTUS41 KRLX 090907 AAA
TAFPKB
TAF AMD
KPKB 090907Z 0909/1006 23010G17KT 1/2SM SHSN FZFG OVC004
      TEMPO 0910/0914 2SM -SHSN OVC010
     FM091400 24010G17KT 3SM -SHSN OVC015
     FM091800 26010G20KT 5SM -SHSN OVC025
     FM100000 26008KT P6SM -SHSN OVC015
     FM100100 26008KT P6SM OVC015=

USA.gov is the U.S. government's official web portal to all federal, state and local government web resources and services.